Time,TemperatureF,DewpointF,PressureIn,WindDirection,WindDirectionDegrees,WindSpeedMPH,WindSpeedGustMPH,Humidity,HourlyPrecipIn,Conditions,Clouds,dailyrainin,SolarRadiationWatts/m^2,SoftwareType,DateUTC
2013-01-30 00:01:00,24.0,14.0,-100.00,WNW,282,13.0,33.0,64,0.00,,,0.00,0.000000,,2013-01-30 07:01:00,
2013-01-30 00:11:00,24.0,14.0,-100.00,WNW,282,13.0,33.0,64,0.00,,,0.00,0.000000,,2013-01-30 07:11:00,
2013-01-30 00:21:00,24.0,14.0,-100.00,WNW,282,13.0,33.0,64,0.00,,,0.00,0.000000,,2013-01-30 07:21:00,
2013-01-30 00:31:00,24.0,14.0,-100.00,WNW,282,13.0,33.0,64,0.00,,,0.00,0.000000,,2013-01-30 07:31:00,
2013-01-30 01:01:00,24.0,14.0,-100.00,WNW,292,12.0,34.0,64,0.00,,,0.00,0.000000,,2013-01-30 08:01:00,
2013-01-30 01:11:00,24.0,14.0,-100.00,WNW,292,12.0,34.0,64,0.00,,,0.00,0.000000,,2013-01-30 08:11:00,
2013-01-30 01:21:00,24.0,14.0,-100.00,WNW,292,12.0,34.0,64,0.00,,,0.00,0.000000,,2013-01-30 08:21:00,
2013-01-30 01:32:00,24.0,14.0,-100.00,WNW,292,12.0,34.0,64,0.00,,,0.00,0.000000,,2013-01-30 08:32:00,
2013-01-30 02:01:00,24.0,16.0,-100.00,NW,306,14.0,33.0,70,0.00,,,0.00,0.000000,,2013-01-30 09:01:00,
2013-01-30 02:11:00,24.0,16.0,-100.00,NW,306,14.0,33.0,70,0.00,,,0.00,0.000000,,2013-01-30 09:11:00,
2013-01-30 02:21:00,24.0,16.0,-100.00,NW,306,14.0,33.0,70,0.00,,,0.00,0.000000,,2013-01-30 09:21:00,
2013-01-30 02:31:00,24.0,16.0,-100.00,NW,306,14.0,33.0,70,0.00,,,0.00,0.000000,,2013-01-30 09:31:00,
2013-01-30 03:01:00,22.0,13.0,-100.00,NW,316,9.0,29.0,69,0.00,,,0.00,0.000000,,2013-01-30 10:01:00,
2013-01-30 03:11:00,22.0,13.0,-100.00,NW,316,9.0,29.0,69,0.00,,,0.00,0.000000,,2013-01-30 10:11:00,
2013-01-30 03:21:00,22.0,13.0,-100.00,NW,316,9.0,29.0,69,0.00,,,0.00,0.000000,,2013-01-30 10:21:00,
2013-01-30 03:31:00,22.0,13.0,-100.00,NW,316,9.0,29.0,69,0.00,,,0.00,0.000000,,2013-01-30 10:31:00,
2013-01-30 04:02:00,22.0,13.0,-100.00,North,349,10.0,26.0,69,0.00,,,0.00,0.000000,,2013-01-30 11:02:00,
2013-01-30 04:11:00,22.0,13.0,-100.00,North,349,10.0,26.0,69,0.00,,,0.00,0.000000,,2013-01-30 11:11:00,
2013-01-30 04:21:00,22.0,13.0,-100.00,North,349,10.0,26.0,69,0.00,,,0.00,0.000000,,2013-01-30 11:21:00,
2013-01-30 04:32:00,22.0,13.0,-100.00,North,349,10.0,26.0,69,0.00,,,0.00,0.000000,,2013-01-30 11:32:00,
2013-01-30 05:02:00,22.0,11.0,-100.00,NNW,346,13.0,28.0,61,0.00,,,0.00,0.000000,,2013-01-30 12:02:00,
2013-01-30 05:12:00,22.0,11.0,-100.00,NNW,346,13.0,28.0,61,0.00,,,0.00,0.000000,,2013-01-30 12:12:00,
2013-01-30 05:22:00,22.0,11.0,-100.00,NNW,346,13.0,28.0,61,0.00,,,0.00,0.000000,,2013-01-30 12:22:00,
2013-01-30 05:32:00,22.0,11.0,-100.00,NNW,346,13.0,28.0,61,0.00,,,0.00,0.000000,,2013-01-30 12:32:00,
2013-01-30 06:02:00,21.0,3.0,-100.00,NNW,346,10.0,24.0,45,0.00,,,0.00,0.000000,,2013-01-30 13:02:00,
2013-01-30 07:02:00,21.0,2.0,-100.00,NNW,343,8.0,23.0,42,0.00,,,0.00,0.000000,,2013-01-30 14:02:00,
2013-01-30 07:11:00,21.0,2.0,-100.00,NNW,343,8.0,23.0,42,0.00,,,0.00,0.000000,,2013-01-30 14:11:00,
2013-01-30 07:22:00,21.0,2.0,-100.00,NNW,343,8.0,23.0,42,0.00,,,0.00,0.000000,,2013-01-30 14:22:00,
2013-01-30 07:32:00,21.0,2.0,-100.00,NNW,343,8.0,23.0,42,0.00,,,0.00,0.000000,,2013-01-30 14:32:00,
2013-01-30 08:03:00,22.0,-1.0,-100.00,North,358,12.0,20.0,36,0.00,,,0.00,7.000000,,2013-01-30 15:03:00,
2013-01-30 08:32:00,22.0,-1.0,-100.00,North,358,12.0,20.0,36,0.00,,,0.00,7.000000,,2013-01-30 15:32:00,
2013-01-30 09:03:00,27.0,-1.0,-100.00,NNW,347,9.0,21.0,29,0.00,,,0.00,191.000000,,2013-01-30 16:03:00,
2013-01-30 09:12:00,27.0,-1.0,-100.00,NNW,347,9.0,21.0,29,0.00,,,0.00,191.000000,,2013-01-30 16:12:00,
2013-01-30 09:22:00,27.0,-1.0,-100.00,NNW,347,9.0,21.0,29,0.00,,,0.00,191.000000,,2013-01-30 16:22:00,
2013-01-30 09:52:00,32.0,-1.0,-100.00,North,352,10.0,20.0,24,0.00,,,0.00,464.000000,,2013-01-30 16:52:00,
2013-01-30 10:02:00,32.0,-1.0,-100.00,North,352,10.0,20.0,24,0.00,,,0.00,464.000000,,2013-01-30 17:02:00,
2013-01-30 10:12:00,32.0,-1.0,-100.00,North,352,10.0,20.0,24,0.00,,,0.00,464.000000,,2013-01-30 17:12:00,
2013-01-30 10:22:00,32.0,-1.0,-100.00,North,352,10.0,20.0,24,0.00,,,0.00,464.000000,,2013-01-30 17:22:00,
2013-01-30 10:31:00,32.0,-1.0,-100.00,North,352,10.0,20.0,24,0.00,,,0.00,464.000000,,2013-01-30 17:31:00,
2013-01-30 11:02:00,36.0,3.0,-100.00,North,4,10.0,25.0,24,0.00,,,-99.99,699.000000,,2013-01-30 18:02:00,
2013-01-30 11:12:00,36.0,3.0,-100.00,North,4,10.0,25.0,24,0.00,,,-99.99,699.000000,,2013-01-30 18:12:00,
2013-01-30 11:22:00,36.0,3.0,-100.00,North,4,10.0,25.0,24,0.00,,,-99.99,699.000000,,2013-01-30 18:22:00,
2013-01-30 11:32:00,36.0,3.0,-100.00,North,4,10.0,25.0,24,0.00,,,-99.99,699.000000,,2013-01-30 18:32:00,
2013-01-30 12:02:00,37.0,4.0,-100.00,North,0,10.0,19.0,25,0.00,,,0.00,846.000000,,2013-01-30 19:02:00,
2013-01-30 12:12:00,37.0,4.0,-100.00,North,0,10.0,19.0,25,0.00,,,0.00,846.000000,,2013-01-30 19:12:00,
2013-01-30 12:22:00,37.0,4.0,-100.00,North,0,10.0,19.0,25,0.00,,,0.00,846.000000,,2013-01-30 19:22:00,
2013-01-30 12:32:00,37.0,4.0,-100.00,North,0,10.0,19.0,25,0.00,,,0.00,846.000000,,2013-01-30 19:32:00,
2013-01-30 13:03:00,45.0,9.0,-100.00,NNE,14,6.0,17.0,23,0.00,,,0.00,951.000000,,2013-01-30 20:03:00,
2013-01-30 13:11:00,45.0,9.0,-100.00,NNE,14,6.0,17.0,23,0.00,,,0.00,951.000000,,2013-01-30 20:11:00,
2013-01-30 13:22:00,45.0,9.0,-100.00,NNE,14,6.0,17.0,23,0.00,,,0.00,951.000000,,2013-01-30 20:22:00,
2013-01-30 13:32:00,45.0,9.0,-100.00,NNE,14,6.0,17.0,23,0.00,,,0.00,951.000000,,2013-01-30 20:32:00,
2013-01-30 14:03:00,44.0,10.0,-100.00,North,351,8.0,15.0,25,0.00,,,0.00,946.000000,,2013-01-30 21:03:00,
2013-01-30 14:12:00,44.0,10.0,-100.00,North,351,8.0,15.0,25,0.00,,,0.00,946.000000,,2013-01-30 21:12:00,
2013-01-30 14:22:00,44.0,10.0,-100.00,North,351,8.0,15.0,25,0.00,,,0.00,946.000000,,2013-01-30 21:22:00,
2013-01-30 14:32:00,44.0,10.0,-100.00,North,351,8.0,15.0,25,0.00,,,0.00,946.000000,,2013-01-30 21:32:00,
2013-01-30 14:52:00,43.0,11.0,-100.00,North,2,7.0,16.0,27,0.00,,,0.00,871.000000,,2013-01-30 21:52:00,
2013-01-30 15:02:00,43.0,11.0,-100.00,North,2,7.0,16.0,27,0.00,,,0.00,871.000000,,2013-01-30 22:02:00,
2013-01-30 15:11:00,43.0,11.0,-100.00,North,2,7.0,16.0,27,0.00,,,0.00,871.000000,,2013-01-30 22:11:00,
2013-01-30 15:22:00,43.0,11.0,-100.00,North,2,7.0,16.0,27,0.00,,,0.00,871.000000,,2013-01-30 22:22:00,
2013-01-30 15:32:00,43.0,11.0,-100.00,North,2,7.0,16.0,27,0.00,,,0.00,871.000000,,2013-01-30 22:32:00,
2013-01-30 16:02:00,45.0,18.0,-100.00,SSE,165,3.0,10.0,34,0.00,,,0.00,698.000000,,2013-01-30 23:02:00,
2013-01-30 16:12:00,45.0,18.0,-100.00,SSE,165,3.0,10.0,34,0.00,,,0.00,698.000000,,2013-01-30 23:12:00,
2013-01-30 16:22:00,45.0,18.0,-100.00,SSE,165,3.0,10.0,34,0.00,,,0.00,698.000000,,2013-01-30 23:22:00,
2013-01-30 16:32:00,45.0,18.0,-100.00,SSE,165,3.0,10.0,34,0.00,,,0.00,698.000000,,2013-01-30 23:32:00,
2013-01-30 17:02:00,45.0,19.0,-100.00,East,93,2.0,6.0,35,0.03,,,0.03,473.000000,,2013-01-31 00:02:00,
2013-01-30 17:11:00,45.0,19.0,-100.00,East,93,2.0,6.0,35,0.03,,,0.03,473.000000,,2013-01-31 00:11:00,
2013-01-30 17:21:00,45.0,19.0,-100.00,East,93,2.0,6.0,35,0.03,,,0.03,473.000000,,2013-01-31 00:21:00,
2013-01-30 17:31:00,45.0,19.0,-100.00,East,93,2.0,6.0,35,0.03,,,0.03,473.000000,,2013-01-31 00:31:00,
2013-01-30 17:53:00,37.0,19.0,-100.00,SSE,166,4.0,8.0,47,0.01,,,0.04,183.000000,,2013-01-31 00:53:00,
2013-01-30 18:02:00,37.0,19.0,-100.00,SSE,166,4.0,8.0,47,0.01,,,0.04,183.000000,,2013-01-31 01:02:00,
2013-01-30 18:11:00,37.0,19.0,-100.00,SSE,166,4.0,8.0,47,0.01,,,0.04,183.000000,,2013-01-31 01:11:00,
2013-01-30 18:21:00,37.0,19.0,-100.00,SSE,166,4.0,8.0,47,0.01,,,0.04,183.000000,,2013-01-31 01:21:00,
2013-01-30 18:31:00,37.0,19.0,-100.00,SSE,166,4.0,8.0,47,0.01,,,0.04,183.000000,,2013-01-31 01:31:00,
2013-01-30 19:01:00,39.0,14.0,-100.00,North,350,12.0,18.0,35,0.00,,,0.04,6.000000,,2013-01-31 02:01:00,
2013-01-30 19:11:00,39.0,14.0,-100.00,North,350,12.0,18.0,35,0.00,,,0.04,6.000000,,2013-01-31 02:11:00,
2013-01-30 19:21:00,39.0,14.0,-100.00,North,350,12.0,18.0,35,0.00,,,0.04,6.000000,,2013-01-31 02:21:00,
2013-01-30 19:32:00,39.0,14.0,-100.00,North,350,12.0,18.0,35,0.00,,,0.04,6.000000,,2013-01-31 02:32:00,
2013-01-30 20:02:00,39.0,16.0,-100.00,North,353,11.0,18.0,38,0.00,,,0.04,0.000000,,2013-01-31 03:02:00,
2013-01-30 20:11:00,39.0,16.0,-100.00,North,353,11.0,18.0,38,0.00,,,0.04,0.000000,,2013-01-31 03:11:00,
2013-01-30 20:21:00,39.0,16.0,-100.00,North,353,11.0,18.0,38,0.00,,,0.04,0.000000,,2013-01-31 03:21:00,
2013-01-30 20:31:00,39.0,16.0,-100.00,North,353,11.0,18.0,38,0.00,,,0.04,0.000000,,2013-01-31 03:31:00,
2013-01-30 21:02:00,38.0,15.0,-100.00,North,8,13.0,19.0,38,0.00,,,0.04,0.000000,,2013-01-31 04:02:00,
2013-01-30 21:11:00,38.0,15.0,-100.00,North,8,13.0,19.0,38,0.00,,,0.04,0.000000,,2013-01-31 04:11:00,
2013-01-30 21:22:00,38.0,15.0,-100.00,North,8,13.0,19.0,38,0.00,,,0.04,0.000000,,2013-01-31 04:22:00,
2013-01-30 21:31:00,38.0,15.0,-100.00,North,8,13.0,19.0,38,0.00,,,0.04,0.000000,,2013-01-31 04:31:00,
2013-01-30 22:03:00,39.0,15.0,-100.00,North,10,15.0,21.0,37,0.00,,,0.04,0.000000,,2013-01-31 05:03:00,
2013-01-30 22:11:00,39.0,15.0,-100.00,North,10,15.0,21.0,37,0.00,,,0.04,0.000000,,2013-01-31 05:11:00,
2013-01-30 22:21:00,39.0,15.0,-100.00,North,10,15.0,21.0,37,0.00,,,0.04,0.000000,,2013-01-31 05:21:00,
2013-01-30 22:31:00,39.0,15.0,-100.00,North,10,15.0,21.0,37,0.00,,,0.04,0.000000,,2013-01-31 05:31:00,